sensor_id;sensor_type;location;lat;lon;timestamp;temperature;humidity
1091;DHT22;534;48.704;9.122;2024-03-07T05:00:45;6.20;83.10
1091;DHT22;534;48.704;9.122;2024-03-07T05:03:12;6.20;83.10
1091;DHT22;534;48.704;9.122;2024-03-07T05:05:39;6.20;83.20
1091;DHT22;534;48.704;9.122;2024-03-07T05:08:06;6.20;83.00
1091;DHT22;534;48.704;9.122;2024-03-07T05:10:33;6.10;82.80
1091;DHT22;534;48.704;9.122;2024-03-07T05:13:01;6.20;82.50
1091;DHT22;534;48.704;9.122;2024-03-07T05:15:28;6.10;82.40
1091;DHT22;534;48.704;9.122;2024-03-07T05:17:56;6.10;82.20
1091;DHT22;534;48.704;9.122;2024-03-07T05:20:23;6.00;82.40
1091;DHT22;534;48.704;9.122;2024-03-07T05:22:49;5.90;82.20
1091;DHT22;534;48.704;9.122;2024-03-07T05:25:16;5.90;82.20
1091;DHT22;534;48.704;9.122;2024-03-07T05:27:44;5.90;82.00
1091;DHT22;534;48.704;9.122;2024-03-07T05:30:11;5.80;82.00
1091;DHT22;534;48.704;9.122;2024-03-07T05:32:38;5.70;81.90
1091;DHT22;534;48.704;9.122;2024-03-07T05:35:08;5.70;81.50
1091;DHT22;534;48.704;9.122;2024-03-07T05:37:36;5.70;81.50
1091;DHT22;534;48.704;9.122;2024-03-07T05:40:03;5.70;81.50
1091;DHT22;534;48.704;9.122;2024-03-07T05:42:33;5.70;81.40
1091;DHT22;534;48.704;9.122;2024-03-07T05:44:59;5.60;81.50
1091;DHT22;534;48.704;9.122;2024-03-07T05:47:26;5.60;81.70
1091;DHT22;534;48.704;9.122;2024-03-07T05:49:53;5.60;81.50
1091;DHT22;534;48.704;9.122;2024-03-07T05:52:21;5.70;81.50
1091;DHT22;534;48.704;9.122;2024-03-07T05:54:47;5.70;81.40
1091;DHT22;534;48.704;9.122;2024-03-07T05:57:14;5.60;81.50
1091;DHT22;534;48.704;9.122;2024-03-07T05:59:41;5.50;81.60
1091;DHT22;534;48.704;9.122;2024-03-07T06:02:07;5.50;81.80
1091;DHT22;534;48.704;9.122;2024-03-07T06:04:34;5.50;81.70
1091;DHT22;534;48.704;9.122;2024-03-07T06:07:01;5.60;81.80
1091;DHT22;534;48.704;9.122;2024-03-07T06:09:29;5.50;81.90
1091;DHT22;534;48.704;9.122;2024-03-07T06:11:55;5.60;81.80
1091;DHT22;534;48.704;9.122;2024-03-07T06:14:22;5.60;81.90
1091;DHT22;534;48.704;9.122;2024-03-07T06:16:49;5.60;82.00
1091;DHT22;534;48.704;9.122;2024-03-07T06:19:18;5.60;82.10
1091;DHT22;534;48.704;9.122;2024-03-07T06:21:44;5.60;81.90
1091;DHT22;534;48.704;9.122;2024-03-07T06:24:11;5.60;82.20
1091;DHT22;534;48.704;9.122;2024-03-07T06:26:41;5.70;82.10
1091;DHT22;534;48.704;9.122;2024-03-07T06:29:13;5.70;82.10
1091;DHT22;534;48.704;9.122;2024-03-07T06:31:41;5.70;82.10
1091;DHT22;534;48.704;9.122;2024-03-07T06:34:08;5.90;82.20
1091;DHT22;534;48.704;9.122;2024-03-07T06:36:35;6.00;82.00
1091;DHT22;534;48.704;9.122;2024-03-07T06:39:02;6.30;82.10
1091;DHT22;534;48.704;9.122;2024-03-07T06:41:30;6.60;81.60
1091;DHT22;534;48.704;9.122;2024-03-07T06:43:58;7.00;80.60
1091;DHT22;534;48.704;9.122;2024-03-07T06:46:25;7.30;79.40
1091;DHT22;534;48.704;9.122;2024-03-07T06:48:52;7.60;77.90
1091;DHT22;534;48.704;9.122;2024-03-07T06:51:19;7.90;77.20
1091;DHT22;534;48.704;9.122;2024-03-07T06:53:46;8.10;76.10
1091;DHT22;534;48.704;9.122;2024-03-07T06:56:13;8.30;74.80
1091;DHT22;534;48.704;9.122;2024-03-07T06:58:39;8.40;74.40
1091;DHT22;534;48.704;9.122;2024-03-07T07:01:09;8.30;74.00
1091;DHT22;534;48.704;9.122;2024-03-07T07:03:37;8.10;74.00
1091;DHT22;534;48.704;9.122;2024-03-07T07:06:05;7.90;74.60
1091;DHT22;534;48.704;9.122;2024-03-07T07:08:32;7.60;75.50
1091;DHT22;534;48.704;9.122;2024-03-07T07:10:59;7.40;76.00
1091;DHT22;534;48.704;9.122;2024-03-07T07:13:26;7.00;77.00
1091;DHT22;534;48.704;9.122;2024-03-07T07:15:52;6.80;78.40
1091;DHT22;534;48.704;9.122;2024-03-07T07:18:21;6.80;78.50
1091;DHT22;534;48.704;9.122;2024-03-07T07:20:49;6.70;79.20
1091;DHT22;534;48.704;9.122;2024-03-07T07:23:17;6.70;79.30
1091;DHT22;534;48.704;9.122;2024-03-07T07:25:45;6.70;79.70
1091;DHT22;534;48.704;9.122;2024-03-07T07:28:12;6.70;80.20
1091;DHT22;534;48.704;9.122;2024-03-07T07:30:38;6.60;80.00
1091;DHT22;534;48.704;9.122;2024-03-07T07:33:05;6.60;80.70
1091;DHT22;534;48.704;9.122;2024-03-07T07:35:33;6.60;80.00
1091;DHT22;534;48.704;9.122;2024-03-07T07:38:00;6.60;80.70
1091;DHT22;534;48.704;9.122;2024-03-07T07:40:27;6.60;80.80
1091;DHT22;534;48.704;9.122;2024-03-07T07:42:56;6.70;80.90
1091;DHT22;534;48.704;9.122;2024-03-07T07:45:23;6.70;80.90
1091;DHT22;534;48.704;9.122;2024-03-07T07:47:51;6.90;80.10
1091;DHT22;534;48.704;9.122;2024-03-07T07:50:19;6.90;79.80
1091;DHT22;534;48.704;9.122;2024-03-07T07:52:48;7.00;79.00
1091;DHT22;534;48.704;9.122;2024-03-07T07:55:15;7.00;79.00
1091;DHT22;534;48.704;9.122;2024-03-07T07:57:43;7.10;78.50
1091;DHT22;534;48.704;9.122;2024-03-07T08:00:12;7.30;78.40
1091;DHT22;534;48.704;9.122;2024-03-07T08:02:48;7.50;78.20
1091;DHT22;534;48.704;9.122;2024-03-07T08:05:14;7.40;77.30
1091;DHT22;534;48.704;9.122;2024-03-07T08:07:43;7.10;78.50
1091;DHT22;534;48.704;9.122;2024-03-07T08:10:11;7.30;77.80
1091;DHT22;534;48.704;9.122;2024-03-07T08:12:38;7.10;76.70
1091;DHT22;534;48.704;9.122;2024-03-07T08:15:07;7.20;78.00
1091;DHT22;534;48.704;9.122;2024-03-07T08:17:34;7.40;77.30
1091;DHT22;534;48.704;9.122;2024-03-07T08:20:01;7.50;77.60
1091;DHT22;534;48.704;9.122;2024-03-07T08:22:29;7.20;77.50
1091;DHT22;534;48.704;9.122;2024-03-07T08:24:56;6.90;77.00
1091;DHT22;534;48.704;9.122;2024-03-07T08:27:24;6.60;78.90
1091;DHT22;534;48.704;9.122;2024-03-07T08:29:50;6.60;79.70
1091;DHT22;534;48.704;9.122;2024-03-07T08:32:17;6.60;79.80
1091;DHT22;534;48.704;9.122;2024-03-07T08:34:44;6.60;80.60
1091;DHT22;534;48.704;9.122;2024-03-07T08:37:12;6.60;79.90
1091;DHT22;534;48.704;9.122;2024-03-07T08:39:38;6.40;80.40
1091;DHT22;534;48.704;9.122;2024-03-07T08:42:05;6.30;80.60
1091;DHT22;534;48.704;9.122;2024-03-07T08:44:33;6.30;81.20
1091;DHT22;534;48.704;9.122;2024-03-07T08:47:00;6.40;81.80
1091;DHT22;534;48.704;9.122;2024-03-07T08:49:26;6.60;81.50
1091;DHT22;534;48.704;9.122;2024-03-07T08:51:54;6.50;81.20
1091;DHT22;534;48.704;9.122;2024-03-07T08:54:21;6.50;81.10
1091;DHT22;534;48.704;9.122;2024-03-07T08:56:48;6.20;81.50
1091;DHT22;534;48.704;9.122;2024-03-07T08:59:14;6.20;81.70
1091;DHT22;534;48.704;9.122;2024-03-07T09:01:44;6.00;81.90
1091;DHT22;534;48.704;9.122;2024-03-07T09:04:11;6.10;82.60
1091;DHT22;534;48.704;9.122;2024-03-07T09:06:39;6.20;82.90
1091;DHT22;534;48.704;9.122;2024-03-07T09:09:06;6.20;83.20
1091;DHT22;534;48.704;9.122;2024-03-07T09:11:34;6.20;82.70
1091;DHT22;534;48.704;9.122;2024-03-07T09:14:01;6.30;82.70
1091;DHT22;534;48.704;9.122;2024-03-07T09:16:28;6.00;82.60
1091;DHT22;534;48.704;9.122;2024-03-07T09:18:56;5.90;83.40
1091;DHT22;534;48.704;9.122;2024-03-07T09:21:23;5.80;83.50
1091;DHT22;534;48.704;9.122;2024-03-07T09:23:51;5.80;83.90
1091;DHT22;534;48.704;9.122;2024-03-07T09:26:17;5.70;83.90
1091;DHT22;534;48.704;9.122;2024-03-07T09:28:44;5.80;84.30
1091;DHT22;534;48.704;9.122;2024-03-07T09:31:14;5.70;83.50
1091;DHT22;534;48.704;9.122;2024-03-07T09:33:41;5.80;84.20
1091;DHT22;534;48.704;9.122;2024-03-07T09:36:09;5.80;83.70
1091;DHT22;534;48.704;9.122;2024-03-07T09:38:35;5.80;83.30
1091;DHT22;534;48.704;9.122;2024-03-07T09:41:02;5.90;83.60
1091;DHT22;534;48.704;9.122;2024-03-07T09:43:30;5.90;84.20
1091;DHT22;534;48.704;9.122;2024-03-07T09:45:58;5.90;84.30
1091;DHT22;534;48.704;9.122;2024-03-07T09:48:26;5.70;83.80
1091;DHT22;534;48.704;9.122;2024-03-07T09:50:55;6.00;84.10
1091;DHT22;534;48.704;9.122;2024-03-07T09:53:27;6.20;83.70
1091;DHT22;534;48.704;9.122;2024-03-07T09:55:54;6.20;83.20
1091;DHT22;534;48.704;9.122;2024-03-07T09:58:21;6.10;83.40
1091;DHT22;534;48.704;9.122;2024-03-07T10:00:49;6.10;83.40
1091;DHT22;534;48.704;9.122;2024-03-07T10:03:20;6.00;83.60
1091;DHT22;534;48.704;9.122;2024-03-07T10:05:47;6.10;83.80
1091;DHT22;534;48.704;9.122;2024-03-07T10:08:15;6.30;83.80
1091;DHT22;534;48.704;9.122;2024-03-07T10:10:45;6.30;83.70
1091;DHT22;534;48.704;9.122;2024-03-07T10:13:13;6.30;83.90
1091;DHT22;534;48.704;9.122;2024-03-07T10:15:39;6.30;84.10
1091;DHT22;534;48.704;9.122;2024-03-07T10:18:08;6.30;83.20
1091;DHT22;534;48.704;9.122;2024-03-07T10:20:36;6.40;83.80
1091;DHT22;534;48.704;9.122;2024-03-07T10:23:05;6.40;83.00
1091;DHT22;534;48.704;9.122;2024-03-07T10:25:33;6.20;82.80
1091;DHT22;534;48.704;9.122;2024-03-07T10:28:02;6.20;82.80
1091;DHT22;534;48.704;9.122;2024-03-07T10:30:29;6.10;82.40
1091;DHT22;534;48.704;9.122;2024-03-07T10:32:57;6.20;83.20
1091;DHT22;534;48.704;9.122;2024-03-07T10:35:25;6.30;82.80
1091;DHT22;534;48.704;9.122;2024-03-07T10:37:52;6.30;82.50
1091;DHT22;534;48.704;9.122;2024-03-07T10:40:20;6.40;83.10
1091;DHT22;534;48.704;9.122;2024-03-07T10:42:48;6.80;82.50
1091;DHT22;534;48.704;9.122;2024-03-07T10:45:19;7.10;81.70
1091;DHT22;534;48.704;9.122;2024-03-07T10:47:53;7.10;77.70
1091;DHT22;534;48.704;9.122;2024-03-07T10:50:28;7.20;77.50
1091;DHT22;534;48.704;9.122;2024-03-07T10:52:59;7.30;76.80
1091;DHT22;534;48.704;9.122;2024-03-07T10:55:34;7.20;76.80
1091;DHT22;534;48.704;9.122;2024-03-07T10:58:09;7.30;78.20
1091;DHT22;534;48.704;9.122;2024-03-07T11:00:42;7.20;79.10
1091;DHT22;534;48.704;9.122;2024-03-07T11:03:11;7.30;78.60
1091;DHT22;534;48.704;9.122;2024-03-07T11:05:39;7.40;77.90
1091;DHT22;534;48.704;9.122;2024-03-07T11:08:09;7.60;78.90
1091;DHT22;534;48.704;9.122;2024-03-07T11:10:38;7.90;77.70
1091;DHT22;534;48.704;9.122;2024-03-07T11:13:07;8.00;76.70
1091;DHT22;534;48.704;9.122;2024-03-07T11:15:36;7.80;74.70
1091;DHT22;534;48.704;9.122;2024-03-07T11:18:05;7.50;75.50
1091;DHT22;534;48.704;9.122;2024-03-07T11:20:35;7.40;76.40
1091;DHT22;534;48.704;9.122;2024-03-07T11:23:25;7.30;77.60
1091;DHT22;534;48.704;9.122;2024-03-07T11:25:54;7.20;78.10
1091;DHT22;534;48.704;9.122;2024-03-07T11:28:28;7.20;77.90
1091;DHT22;534;48.704;9.122;2024-03-07T11:31:07;7.20;77.20
1091;DHT22;534;48.704;9.122;2024-03-07T11:33:37;7.00;77.60
1091;DHT22;534;48.704;9.122;2024-03-07T11:36:06;7.00;79.10
1091;DHT22;534;48.704;9.122;2024-03-07T11:38:33;6.80;77.70
1091;DHT22;534;48.704;9.122;2024-03-07T11:41:01;6.80;79.00
1091;DHT22;534;48.704;9.122;2024-03-07T11:43:29;6.70;78.10
1091;DHT22;534;48.704;9.122;2024-03-07T11:45:56;6.70;79.20
1091;DHT22;534;48.704;9.122;2024-03-07T11:48:23;6.70;80.20
1091;DHT22;534;48.704;9.122;2024-03-07T11:50:51;6.90;81.00
1091;DHT22;534;48.704;9.122;2024-03-07T11:53:20;7.00;79.60
1091;DHT22;534;48.704;9.122;2024-03-07T11:55:47;7.30;79.40
1091;DHT22;534;48.704;9.122;2024-03-07T11:58:15;7.60;79.90
1091;DHT22;534;48.704;9.122;2024-03-07T12:00:44;7.80;79.20
1091;DHT22;534;48.704;9.122;2024-03-07T12:03:11;7.60;77.50
1091;DHT22;534;48.704;9.122;2024-03-07T12:05:39;7.50;78.10
1091;DHT22;534;48.704;9.122;2024-03-07T12:08:08;7.50;78.30
1091;DHT22;534;48.704;9.122;2024-03-07T12:10:36;7.40;78.70
1091;DHT22;534;48.704;9.122;2024-03-07T12:13:04;7.40;78.90
1091;DHT22;534;48.704;9.122;2024-03-07T12:15:31;7.30;79.10
1091;DHT22;534;48.704;9.122;2024-03-07T12:17:58;7.20;79.60
1091;DHT22;534;48.704;9.122;2024-03-07T12:20:27;7.40;80.40
1091;DHT22;534;48.704;9.122;2024-03-07T12:22:56;7.40;79.90
1091;DHT22;534;48.704;9.122;2024-03-07T12:25:24;7.30;80.40
1091;DHT22;534;48.704;9.122;2024-03-07T12:28:03;7.40;80.70
1091;DHT22;534;48.704;9.122;2024-03-07T12:30:31;7.50;81.00
1091;DHT22;534;48.704;9.122;2024-03-07T12:32:58;7.60;80.10
1091;DHT22;534;48.704;9.122;2024-03-07T12:35:25;7.60;80.90
1091;DHT22;534;48.704;9.122;2024-03-07T12:37:53;7.60;80.60
1091;DHT22;534;48.704;9.122;2024-03-07T12:40:21;7.80;78.70
1091;DHT22;534;48.704;9.122;2024-03-07T12:42:52;7.70;77.80
1091;DHT22;534;48.704;9.122;2024-03-07T12:45:19;7.70;78.90
1091;DHT22;534;48.704;9.122;2024-03-07T12:47:46;7.90;78.50
1091;DHT22;534;48.704;9.122;2024-03-07T12:50:16;8.20;77.50
1091;DHT22;534;48.704;9.122;2024-03-07T12:52:43;8.20;76.40
1091;DHT22;534;48.704;9.122;2024-03-07T12:55:10;8.50;77.10
1091;DHT22;534;48.704;9.122;2024-03-07T12:57:38;8.70;75.50
1091;DHT22;534;48.704;9.122;2024-03-07T13:00:09;8.70;75.50
1091;DHT22;534;48.704;9.122;2024-03-07T13:02:45;8.60;75.30
1091;DHT22;534;48.704;9.122;2024-03-07T13:05:11;8.50;76.00
1091;DHT22;534;48.704;9.122;2024-03-07T13:07:45;8.40;76.10
1091;DHT22;534;48.704;9.122;2024-03-07T13:10:12;8.30;76.90
1091;DHT22;534;48.704;9.122;2024-03-07T13:12:40;8.30;76.70
1091;DHT22;534;48.704;9.122;2024-03-07T13:15:10;8.30;77.20
1091;DHT22;534;48.704;9.122;2024-03-07T13:17:36;8.30;77.00
1091;DHT22;534;48.704;9.122;2024-03-07T13:20:04;8.20;78.30
1091;DHT22;534;48.704;9.122;2024-03-07T13:22:37;8.20;78.90
1091;DHT22;534;48.704;9.122;2024-03-07T13:25:04;8.20;79.20
1091;DHT22;534;48.704;9.122;2024-03-07T13:27:40;8.20;79.30
1091;DHT22;534;48.704;9.122;2024-03-07T13:30:08;8.30;78.90
1091;DHT22;534;48.704;9.122;2024-03-07T13:32:36;8.20;79.30
1091;DHT22;534;48.704;9.122;2024-03-07T13:35:02;8.30;78.90
1091;DHT22;534;48.704;9.122;2024-03-07T13:37:29;8.50;79.00
1091;DHT22;534;48.704;9.122;2024-03-07T13:39:59;8.60;78.10
1091;DHT22;534;48.704;9.122;2024-03-07T13:42:45;8.80;77.70
1091;DHT22;534;48.704;9.122;2024-03-07T13:45:12;8.80;76.90
1091;DHT22;534;48.704;9.122;2024-03-07T13:47:40;8.80;77.70
1091;DHT22;534;48.704;9.122;2024-03-07T13:50:08;8.70;78.30
1091;DHT22;534;48.704;9.122;2024-03-07T13:52:37;8.80;78.20
1091;DHT22;534;48.704;9.122;2024-03-07T13:55:09;8.80;77.30
1091;DHT22;534;48.704;9.122;2024-03-07T13:57:42;8.90;76.70
1091;DHT22;534;48.704;9.122;2024-03-07T14:00:25;8.80;77.30
1091;DHT22;534;48.704;9.122;2024-03-07T14:03:26;8.80;77.20
1091;DHT22;534;48.704;9.122;2024-03-07T14:06:03;8.90;77.30
1091;DHT22;534;48.704;9.122;2024-03-07T14:08:49;9.00;77.20
1091;DHT22;534;48.704;9.122;2024-03-07T14:20:54;8.90;76.90
1091;DHT22;534;48.704;9.122;2024-03-07T14:23:39;8.70;76.90
1091;DHT22;534;48.704;9.122;2024-03-07T14:29:22;8.90;76.40
1091;DHT22;534;48.704;9.122;2024-03-07T14:31:53;8.80;76.60
1091;DHT22;534;48.704;9.122;2024-03-07T14:34:29;8.70;76.70
1091;DHT22;534;48.704;9.122;2024-03-07T14:37:09;8.80;77.00
1091;DHT22;534;48.704;9.122;2024-03-07T14:39:38;8.80;77.00
1091;DHT22;534;48.704;9.122;2024-03-07T14:42:06;8.70;76.90
1091;DHT22;534;48.704;9.122;2024-03-07T14:44:36;8.60;77.00
1091;DHT22;534;48.704;9.122;2024-03-07T14:47:04;8.70;77.90
1091;DHT22;534;48.704;9.122;2024-03-07T14:49:32;8.90;77.70
1091;DHT22;534;48.704;9.122;2024-03-07T14:52:01;9.10;77.10
1091;DHT22;534;48.704;9.122;2024-03-07T14:54:30;9.20;76.40
1091;DHT22;534;48.704;9.122;2024-03-07T14:56:57;9.20;76.20
1091;DHT22;534;48.704;9.122;2024-03-07T14:59:24;9.30;76.30
1091;DHT22;534;48.704;9.122;2024-03-07T15:01:51;9.30;75.20
1091;DHT22;534;48.704;9.122;2024-03-07T15:04:18;9.10;75.80
1091;DHT22;534;48.704;9.122;2024-03-07T15:06:46;9.10;75.80
1091;DHT22;534;48.704;9.122;2024-03-07T15:09:13;9.10;76.20
1091;DHT22;534;48.704;9.122;2024-03-07T15:11:41;9.00;76.20
1091;DHT22;534;48.704;9.122;2024-03-07T15:14:08;9.00;76.40
1091;DHT22;534;48.704;9.122;2024-03-07T15:16:35;8.90;76.60
1091;DHT22;534;48.704;9.122;2024-03-07T15:19:03;8.80;76.10
1091;DHT22;534;48.704;9.122;2024-03-07T15:21:30;8.80;76.40
1091;DHT22;534;48.704;9.122;2024-03-07T15:23:57;8.80;76.40
1091;DHT22;534;48.704;9.122;2024-03-07T15:26:23;8.80;76.20
1091;DHT22;534;48.704;9.122;2024-03-07T15:28:51;8.80;76.30
1091;DHT22;534;48.704;9.122;2024-03-07T15:31:18;8.70;76.20
1091;DHT22;534;48.704;9.122;2024-03-07T15:33:45;8.70;76.50
1091;DHT22;534;48.704;9.122;2024-03-07T15:36:12;8.80;76.60
1091;DHT22;534;48.704;9.122;2024-03-07T15:38:39;8.80;76.20
1091;DHT22;534;48.704;9.122;2024-03-07T15:41:06;8.80;75.90
1091;DHT22;534;48.704;9.122;2024-03-07T15:43:34;8.80;75.90
1091;DHT22;534;48.704;9.122;2024-03-07T15:46:02;8.80;75.20
1091;DHT22;534;48.704;9.122;2024-03-07T15:48:30;8.80;74.90
1091;DHT22;534;48.704;9.122;2024-03-07T15:50:58;8.70;74.90
1091;DHT22;534;48.704;9.122;2024-03-07T15:53:25;8.40;75.50
1091;DHT22;534;48.704;9.122;2024-03-07T15:55:52;8.40;75.60
1091;DHT22;534;48.704;9.122;2024-03-07T15:58:19;8.40;76.10
1091;DHT22;534;48.704;9.122;2024-03-07T16:00:45;8.30;76.50
1091;DHT22;534;48.704;9.122;2024-03-07T16:03:14;8.20;76.60
1091;DHT22;534;48.704;9.122;2024-03-07T16:05:42;8.10;76.20
1091;DHT22;534;48.704;9.122;2024-03-07T16:08:10;8.10;76.40
1091;DHT22;534;48.704;9.122;2024-03-07T16:10:37;8.00;76.10
1091;DHT22;534;48.704;9.122;2024-03-07T16:13:06;8.00;76.60
1091;DHT22;534;48.704;9.122;2024-03-07T16:15:34;7.90;76.40
1091;DHT22;534;48.704;9.122;2024-03-07T16:18:02;7.80;76.80
1091;DHT22;534;48.704;9.122;2024-03-07T16:20:30;7.90;76.80
1091;DHT22;534;48.704;9.122;2024-03-07T16:22:57;7.80;76.60
1091;DHT22;534;48.704;9.122;2024-03-07T16:25:25;7.80;77.10
1091;DHT22;534;48.704;9.122;2024-03-07T16:27:52;7.80;76.80
1091;DHT22;534;48.704;9.122;2024-03-07T16:30:21;7.70;76.80
1091;DHT22;534;48.704;9.122;2024-03-07T16:32:49;7.70;77.00
1091;DHT22;534;48.704;9.122;2024-03-07T16:35:17;7.70;76.90
1091;DHT22;534;48.704;9.122;2024-03-07T16:37:48;7.70;77.00
1091;DHT22;534;48.704;9.122;2024-03-07T16:40:18;7.70;76.90
1091;DHT22;534;48.704;9.122;2024-03-07T16:42:46;7.80;76.90
1091;DHT22;534;48.704;9.122;2024-03-07T16:45:17;7.80;77.10
1091;DHT22;534;48.704;9.122;2024-03-07T16:47:45;7.70;76.70
1091;DHT22;534;48.704;9.122;2024-03-07T16:50:13;7.80;76.80
1091;DHT22;534;48.704;9.122;2024-03-07T16:52:41;7.80;76.80
1091;DHT22;534;48.704;9.122;2024-03-07T16:55:09;7.90;76.70
1091;DHT22;534;48.704;9.122;2024-03-07T16:57:40;7.80;76.50
1091;DHT22;534;48.704;9.122;2024-03-07T17:00:09;7.80;76.80
1091;DHT22;534;48.704;9.122;2024-03-07T17:02:36;7.90;76.60
1091;DHT22;534;48.704;9.122;2024-03-07T17:05:04;8.00;76.30
1091;DHT22;534;48.704;9.122;2024-03-07T17:07:38;8.00;75.90
1091;DHT22;534;48.704;9.122;2024-03-07T17:10:06;8.10;75.70
1091;DHT22;534;48.704;9.122;2024-03-07T17:12:37;8.20;75.70
1091;DHT22;534;48.704;9.122;2024-03-07T17:15:04;8.20;75.40
1091;DHT22;534;48.704;9.122;2024-03-07T17:17:31;8.30;74.80
1091;DHT22;534;48.704;9.122;2024-03-07T17:19:58;8.30;75.00
1091;DHT22;534;48.704;9.122;2024-03-07T17:22:25;8.10;74.40
1091;DHT22;534;48.704;9.122;2024-03-07T17:24:52;8.00;75.40
1091;DHT22;534;48.704;9.122;2024-03-07T17:27:18;8.10;75.60
1091;DHT22;534;48.704;9.122;2024-03-07T17:29:46;8.20;75.60
1091;DHT22;534;48.704;9.122;2024-03-07T17:32:13;8.30;75.80
1091;DHT22;534;48.704;9.122;2024-03-07T17:34:41;8.30;75.20
1091;DHT22;534;48.704;9.122;2024-03-07T17:37:08;8.30;75.40
1091;DHT22;534;48.704;9.122;2024-03-07T17:39:34;8.30;74.70
1091;DHT22;534;48.704;9.122;2024-03-07T17:42:01;8.30;74.60
1091;DHT22;534;48.704;9.122;2024-03-07T17:44:36;8.30;74.40
1091;DHT22;534;48.704;9.122;2024-03-07T17:47:05;8.30;74.60
1091;DHT22;534;48.704;9.122;2024-03-07T17:49:37;8.30;74.60
1091;DHT22;534;48.704;9.122;2024-03-07T17:52:05;8.30;74.20
1091;DHT22;534;48.704;9.122;2024-03-07T17:54:35;8.20;74.20
1091;DHT22;534;48.704;9.122;2024-03-07T17:57:02;8.20;74.10
1091;DHT22;534;48.704;9.122;2024-03-07T17:59:31;8.10;74.60
1091;DHT22;534;48.704;9.122;2024-03-07T18:01:57;8.00;75.00
1091;DHT22;534;48.704;9.122;2024-03-07T18:04:27;8.10;75.40
1091;DHT22;534;48.704;9.122;2024-03-07T18:06:53;8.10;75.50
1091;DHT22;534;48.704;9.122;2024-03-07T18:09:20;8.10;75.60
1091;DHT22;534;48.704;9.122;2024-03-07T18:11:53;8.00;76.40
1091;DHT22;534;48.704;9.122;2024-03-07T18:14:21;7.90;76.90
1091;DHT22;534;48.704;9.122;2024-03-07T18:16:48;7.90;77.00
1091;DHT22;534;48.704;9.122;2024-03-07T18:19:17;7.80;77.00
1091;DHT22;534;48.704;9.122;2024-03-07T18:21:45;7.80;77.40
1091;DHT22;534;48.704;9.122;2024-03-07T18:24:12;7.80;77.80
1091;DHT22;534;48.704;9.122;2024-03-07T18:26:38;7.90;77.30
1091;DHT22;534;48.704;9.122;2024-03-07T18:29:06;7.80;78.00
1091;DHT22;534;48.704;9.122;2024-03-07T18:31:33;7.90;77.80
1091;DHT22;534;48.704;9.122;2024-03-07T18:33:59;8.00;77.70
1091;DHT22;534;48.704;9.122;2024-03-07T18:36:31;8.00;77.90
1091;DHT22;534;48.704;9.122;2024-03-07T18:39:01;8.00;77.60
1091;DHT22;534;48.704;9.122;2024-03-07T18:41:36;8.00;77.90
1091;DHT22;534;48.704;9.122;2024-03-07T18:44:02;7.90;78.00
1091;DHT22;534;48.704;9.122;2024-03-07T18:46:30;8.00;77.90
1091;DHT22;534;48.704;9.122;2024-03-07T18:48:57;7.90;78.10
1091;DHT22;534;48.704;9.122;2024-03-07T18:51:25;7.90;78.40
1091;DHT22;534;48.704;9.122;2024-03-07T18:53:51;7.80;78.80
1091;DHT22;534;48.704;9.122;2024-03-07T18:56:20;7.90;79.00
1091;DHT22;534;48.704;9.122;2024-03-07T18:58:48;8.00;78.60
1091;DHT22;534;48.704;9.122;2024-03-07T19:01:15;8.00;78.60
1091;DHT22;534;48.704;9.122;2024-03-07T19:03:42;7.90;78.80
1091;DHT22;534;48.704;9.122;2024-03-07T19:06:08;7.80;79.20
1091;DHT22;534;48.704;9.122;2024-03-07T19:08:37;7.90;79.50
1091;DHT22;534;48.704;9.122;2024-03-07T19:11:03;8.00;79.10
1091;DHT22;534;48.704;9.122;2024-03-07T19:13:31;7.80;79.20
1091;DHT22;534;48.704;9.122;2024-03-07T19:16:01;7.80;79.60
1091;DHT22;534;48.704;9.122;2024-03-07T19:18:28;7.90;79.50
1091;DHT22;534;48.704;9.122;2024-03-07T19:20:55;7.70;79.70
1091;DHT22;534;48.704;9.122;2024-03-07T19:23:22;7.60;80.00
1091;DHT22;534;48.704;9.122;2024-03-07T19:25:49;7.60;80.00
1091;DHT22;534;48.704;9.122;2024-03-07T19:28:17;7.50;80.20
1091;DHT22;534;48.704;9.122;2024-03-07T19:30:46;7.60;80.00
1091;DHT22;534;48.704;9.122;2024-03-07T19:33:15;7.60;79.90
1091;DHT22;534;48.704;9.122;2024-03-07T19:35:43;7.50;80.30
1091;DHT22;534;48.704;9.122;2024-03-07T19:38:11;7.40;80.40
1091;DHT22;534;48.704;9.122;2024-03-07T19:40:38;7.50;80.30
1091;DHT22;534;48.704;9.122;2024-03-07T19:43:05;7.50;80.40
1091;DHT22;534;48.704;9.122;2024-03-07T19:45:33;7.50;80.10
1091;DHT22;534;48.704;9.122;2024-03-07T19:48:02;7.40;79.90
1091;DHT22;534;48.704;9.122;2024-03-07T19:50:30;7.50;80.00
1091;DHT22;534;48.704;9.122;2024-03-07T19:52:58;7.60;79.70
1091;DHT22;534;48.704;9.122;2024-03-07T19:55:26;7.40;79.50
1091;DHT22;534;48.704;9.122;2024-03-07T19:57:55;7.30;80.00
1091;DHT22;534;48.704;9.122;2024-03-07T20:00:23;7.40;80.20
1091;DHT22;534;48.704;9.122;2024-03-07T20:02:50;7.50;79.70
1091;DHT22;534;48.704;9.122;2024-03-07T20:05:18;7.70;79.70
1091;DHT22;534;48.704;9.122;2024-03-07T20:07:46;7.80;79.20
1091;DHT22;534;48.704;9.122;2024-03-07T20:10:12;7.80;78.70
1091;DHT22;534;48.704;9.122;2024-03-07T20:12:40;7.60;78.80
1091;DHT22;534;48.704;9.122;2024-03-07T20:15:09;7.60;79.20
1091;DHT22;534;48.704;9.122;2024-03-07T20:17:37;7.60;78.90
1091;DHT22;534;48.704;9.122;2024-03-07T20:20:05;7.60;79.10
1091;DHT22;534;48.704;9.122;2024-03-07T20:22:41;7.50;79.10
1091;DHT22;534;48.704;9.122;2024-03-07T20:25:08;7.50;79.70
1091;DHT22;534;48.704;9.122;2024-03-07T20:27:41;7.60;79.20
1091;DHT22;534;48.704;9.122;2024-03-07T20:30:08;7.50;79.10
1091;DHT22;534;48.704;9.122;2024-03-07T20:32:35;7.50;79.70
1091;DHT22;534;48.704;9.122;2024-03-07T20:35:03;7.40;79.30
1091;DHT22;534;48.704;9.122;2024-03-07T20:37:33;7.40;79.50
1091;DHT22;534;48.704;9.122;2024-03-07T20:40:03;7.40;79.70
1091;DHT22;534;48.704;9.122;2024-03-07T20:42:32;7.50;79.50
1091;DHT22;534;48.704;9.122;2024-03-07T20:45:00;7.50;79.00
1091;DHT22;534;48.704;9.122;2024-03-07T20:47:33;7.30;79.40
1091;DHT22;534;48.704;9.122;2024-03-07T20:50:00;7.10;80.10
1091;DHT22;534;48.704;9.122;2024-03-07T20:52:30;7.10;80.40
1091;DHT22;534;48.704;9.122;2024-03-07T20:54:57;7.10;80.40
1091;DHT22;534;48.704;9.122;2024-03-07T20:57:31;7.20;81.20
1091;DHT22;534;48.704;9.122;2024-03-07T20:59:58;7.20;80.80
1091;DHT22;534;48.704;9.122;2024-03-07T21:02:24;7.20;80.50
1091;DHT22;534;48.704;9.122;2024-03-07T21:04:51;7.10;80.50
1091;DHT22;534;48.704;9.122;2024-03-07T21:07:17;7.00;80.80
1091;DHT22;534;48.704;9.122;2024-03-07T21:09:44;7.00;81.00
1091;DHT22;534;48.704;9.122;2024-03-07T21:12:11;7.00;81.10
1091;DHT22;534;48.704;9.122;2024-03-07T21:14:39;6.90;81.50
1091;DHT22;534;48.704;9.122;2024-03-07T21:17:06;6.90;81.30
1091;DHT22;534;48.704;9.122;2024-03-07T21:19:36;6.90;81.30
1091;DHT22;534;48.704;9.122;2024-03-07T21:22:03;6.80;81.30
1091;DHT22;534;48.704;9.122;2024-03-07T21:24:30;6.80;81.70
1091;DHT22;534;48.704;9.122;2024-03-07T21:26:56;6.80;81.60
1091;DHT22;534;48.704;9.122;2024-03-07T21:29:23;6.80;81.70
